createdAt,value
2022-12-22T00:02:07.123Z,12.02
2022-12-22T00:04:53.231Z,13.70
2022-12-22T00:07:39.148Z,13.35
2022-12-22T00:10:25.921Z,12.15
2022-12-22T00:13:11.609Z,12.68
2022-12-22T00:16:00.356Z,9.65
2022-12-22T00:18:46.368Z,11.68
2022-12-22T00:21:32.874Z,12.10
2022-12-22T00:24:18.952Z,10.43
2022-12-22T00:27:06.866Z,10.85
2022-12-22T00:29:58.299Z,8.30
2022-12-22T00:32:50.402Z,13.05
2022-12-22T00:35:40.937Z,9.75
2022-12-22T00:38:33.549Z,10.00
2022-12-22T00:41:19.611Z,8.52
2022-12-22T00:44:05.441Z,8.68
2022-12-22T00:46:52.463Z,9.40
2022-12-22T00:49:45.381Z,10.23
2022-12-22T00:52:36.788Z,8.57
2022-12-22T00:55:30.610Z,10.30
2022-12-22T00:58:17.270Z,11.30
2022-12-22T01:01:06.183Z,9.40
2022-12-22T01:03:52.072Z,10.48
2022-12-22T01:06:39.732Z,11.50
2022-12-22T01:09:25.430Z,11.07
2022-12-22T01:12:11.153Z,10.15
2022-12-22T01:14:56.865Z,10.40
2022-12-22T01:17:42.921Z,9.10
2022-12-22T01:20:29.589Z,12.35
2022-12-22T01:23:16.637Z,10.73
2022-12-22T01:26:03.156Z,11.88
2022-12-22T01:28:48.957Z,12.00
2022-12-22T01:31:37.473Z,10.57
2022-12-22T01:34:23.450Z,12.20
2022-12-22T01:37:09.444Z,11.98
2022-12-22T01:39:56.810Z,11.93
2022-12-22T01:42:43.297Z,11.10
2022-12-22T01:45:40.113Z,10.40
2022-12-22T01:48:30.215Z,12.40
2022-12-22T01:51:18.557Z,12.13
2022-12-22T01:54:04.675Z,11.68
2022-12-22T01:56:52.787Z,11.57
2022-12-22T01:59:38.727Z,11.45
2022-12-22T02:02:25.712Z,13.57
2022-12-22T02:05:13.467Z,14.18
2022-12-22T02:08:19.242Z,12.23
2022-12-22T02:11:29.190Z,13.95
2022-12-22T02:14:32.559Z,13.40
2022-12-22T02:17:26.377Z,10.55
2022-12-22T02:20:32.848Z,13.93
2022-12-22T02:23:28.774Z,11.13
2022-12-22T02:26:21.166Z,12.55
2022-12-22T02:29:11.017Z,16.02
2022-12-22T02:32:00.796Z,13.52
2022-12-22T02:34:46.705Z,14.23
2022-12-22T02:37:43.973Z,14.40
2022-12-22T02:40:41.494Z,14.30
2022-12-22T02:43:38.753Z,14.35
2022-12-22T02:46:34.114Z,14.98
2022-12-22T02:49:25.292Z,14.23
2022-12-22T02:52:20.119Z,16.20
2022-12-22T02:55:06.301Z,17.67
2022-12-22T02:57:53.060Z,16.40
2022-12-22T03:00:39.151Z,14.30
2022-12-22T03:03:27.085Z,14.98
2022-12-22T03:06:13.118Z,15.50
2022-12-22T03:08:58.962Z,13.23
2022-12-22T03:11:44.904Z,17.00
2022-12-22T03:14:30.609Z,16.35
2022-12-22T03:17:16.430Z,16.05
2022-12-22T03:20:04.168Z,15.55
2022-12-22T03:22:50.558Z,15.35
2022-12-22T03:25:36.243Z,17.02
2022-12-22T03:28:05.369Z,15.70
2022-12-22T03:30:34.864Z,14.00
2022-12-22T03:33:03.351Z,13.02
2022-12-22T03:35:33.541Z,15.13
2022-12-22T03:38:05.911Z,14.15
2022-12-22T03:40:34.627Z,14.52
2022-12-22T03:43:20.618Z,13.23
2022-12-22T03:46:06.840Z,19.13
2022-12-22T03:48:35.640Z,14.30
2022-12-22T03:51:05.227Z,15.65
2022-12-22T03:53:34.107Z,14.80
2022-12-22T03:56:07.488Z,15.65
2022-12-22T03:58:36.519Z,17.42
2022-12-22T04:01:10.961Z,15.55
2022-12-22T04:03:39.732Z,17.95
2022-12-22T04:06:09.427Z,15.77
2022-12-22T04:08:38.363Z,14.52
2022-12-22T04:11:24.640Z,13.85
2022-12-22T04:13:53.318Z,14.20
2022-12-22T04:16:21.915Z,13.20
2022-12-22T04:18:50.306Z,13.23
2022-12-22T04:21:19.759Z,14.68
2022-12-22T04:23:51.346Z,13.95
2022-12-22T04:26:20.330Z,13.75
2022-12-22T04:28:48.952Z,14.68
2022-12-22T04:31:17.425Z,13.38
2022-12-22T04:33:46.009Z,13.48
2022-12-22T04:36:14.817Z,13.75
2022-12-22T04:38:45.045Z,14.60
2022-12-22T04:41:13.597Z,13.10
2022-12-22T04:43:41.762Z,13.50
2022-12-22T04:46:10.383Z,13.65
2022-12-22T04:48:38.781Z,10.57
2022-12-22T04:51:07.694Z,11.85
2022-12-22T04:53:35.896Z,12.05
2022-12-22T04:56:07.638Z,10.63
2022-12-22T04:58:36.996Z,10.13
2022-12-22T05:01:13.283Z,10.88
2022-12-22T05:03:43.758Z,10.32
2022-12-22T05:06:13.175Z,11.18
2022-12-22T05:08:41.825Z,11.20
2022-12-22T05:11:11.704Z,11.98
2022-12-22T05:13:41.164Z,11.93
2022-12-22T05:16:13.795Z,14.95
2022-12-22T05:18:44.549Z,16.25
2022-12-22T05:21:16.844Z,15.68
2022-12-22T05:23:46.632Z,16.42
2022-12-22T05:26:18.675Z,17.73
2022-12-22T05:28:48.560Z,15.98
2022-12-22T05:31:19.124Z,18.80
2022-12-22T05:33:47.625Z,15.55
2022-12-22T05:36:16.118Z,15.30
2022-12-22T05:38:45.635Z,14.95
2022-12-22T05:41:14.705Z,16.27
2022-12-22T05:43:44.412Z,14.70
2022-12-22T05:46:13.504Z,16.95
2022-12-22T05:48:42.142Z,17.90
2022-12-22T05:51:11.361Z,20.23
2022-12-22T05:53:40.689Z,21.83
2022-12-22T05:56:09.795Z,18.63
2022-12-22T05:58:40.074Z,25.42
2022-12-22T06:01:10.434Z,23.30
2022-12-22T06:03:39.310Z,21.13
2022-12-22T06:06:08.232Z,19.77
2022-12-22T06:08:36.737Z,24.25
2022-12-22T06:11:05.121Z,20.67
2022-12-22T06:13:33.543Z,18.35
2022-12-22T06:16:02.077Z,18.30
2022-12-22T06:18:33.410Z,17.88
2022-12-22T06:21:02.891Z,18.25
2022-12-22T06:23:31.828Z,16.30
2022-12-22T06:26:02.532Z,18.52
2022-12-22T06:28:31.411Z,17.25
2022-12-22T06:30:59.807Z,16.08
2022-12-22T06:33:28.426Z,12.95
2022-12-22T06:35:59.696Z,14.40
2022-12-22T06:38:29.414Z,14.88
2022-12-22T06:40:57.682Z,13.65
2022-12-22T06:43:25.461Z,12.50
2022-12-22T06:45:54.165Z,12.70
2022-12-22T06:48:22.910Z,11.77
2022-12-22T06:50:51.473Z,14.57
2022-12-22T06:53:21.310Z,15.88
2022-12-22T06:55:50.363Z,14.00
2022-12-22T06:58:19.197Z,13.38
2022-12-22T07:00:49.845Z,13.82
2022-12-22T07:03:18.742Z,13.20
2022-12-22T07:05:47.190Z,12.27
2022-12-22T07:08:15.817Z,13.52
2022-12-22T07:11:01.471Z,13.90
2022-12-22T07:13:34.193Z,14.38
2022-12-22T07:16:04.152Z,11.68
2022-12-22T07:18:34.364Z,14.23
2022-12-22T07:21:04.134Z,14.80
2022-12-22T07:23:33.322Z,12.73
2022-12-22T07:26:03.850Z,13.52
2022-12-22T07:28:34.343Z,12.70
2022-12-22T07:31:02.942Z,11.77
2022-12-22T07:33:31.479Z,12.10
2022-12-22T07:36:07.973Z,11.57
2022-12-22T07:38:38.341Z,11.63
2022-12-22T07:41:30.076Z,13.13
2022-12-22T07:43:59.526Z,33.67
2022-12-22T07:46:29.702Z,13.23
2022-12-22T07:49:15.786Z,11.95
2022-12-22T07:51:44.950Z,11.02
2022-12-22T07:54:15.559Z,13.10
2022-12-22T07:56:46.629Z,12.90
2022-12-22T07:59:16.527Z,12.23
2022-12-22T08:01:45.795Z,10.93
2022-12-22T08:04:15.660Z,10.40
2022-12-22T08:06:44.289Z,11.48
2022-12-22T08:09:16.637Z,11.10
2022-12-22T08:14:45.909Z,11.50
2022-12-22T08:17:14.202Z,10.90
2022-12-22T08:19:42.655Z,13.32
2022-12-22T08:22:12.464Z,12.10
2022-12-22T08:24:40.623Z,12.63
2022-12-22T08:27:18.359Z,12.77
2022-12-22T08:29:57.101Z,12.15
2022-12-22T08:32:25.897Z,12.23
2022-12-22T08:34:55.166Z,11.10
2022-12-22T08:37:29.371Z,14.55
2022-12-22T08:40:03.505Z,12.02
2022-12-22T08:42:35.224Z,12.98
2022-12-22T08:45:04.488Z,12.75
2022-12-22T08:47:36.289Z,13.90
2022-12-22T08:50:07.184Z,13.40
2022-12-22T08:52:37.139Z,13.80
2022-12-22T08:55:08.794Z,12.38
2022-12-22T08:57:40.786Z,12.10
2022-12-22T09:00:14.686Z,13.57
2022-12-22T09:02:48.552Z,13.27
2022-12-22T09:05:28.422Z,15.25
2022-12-22T09:08:10.019Z,14.02
2022-12-22T09:11:12.119Z,13.80
2022-12-22T09:13:47.952Z,14.00
2022-12-22T09:16:25.806Z,11.50
2022-12-22T09:19:11.037Z,13.60
2022-12-22T09:21:48.216Z,11.48
2022-12-22T09:24:24.876Z,13.82
2022-12-22T09:27:22.363Z,17.50
2022-12-22T09:29:53.986Z,13.55
2022-12-22T09:32:51.532Z,14.60
2022-12-22T09:35:24.723Z,15.73
2022-12-22T09:37:54.208Z,14.45
2022-12-22T09:40:22.646Z,15.45
2022-12-22T09:42:51.797Z,14.20
2022-12-22T09:45:21.699Z,13.63
2022-12-22T09:47:53.911Z,13.90
2022-12-22T09:50:24.160Z,16.10
2022-12-22T09:52:56.278Z,18.05
2022-12-22T09:55:39.624Z,16.30
2022-12-22T09:58:25.698Z,16.15
2022-12-22T10:01:04.308Z,17.23
2022-12-22T10:03:41.289Z,17.13
2022-12-22T10:06:15.045Z,15.57
2022-12-22T10:08:43.926Z,16.27
2022-12-22T10:11:16.358Z,15.95
2022-12-22T10:13:45.708Z,17.20
2022-12-22T10:16:26.502Z,17.45
2022-12-22T10:19:02.024Z,14.98
2022-12-22T10:21:30.753Z,14.90
2022-12-22T10:23:59.152Z,15.48
2022-12-22T10:26:31.845Z,15.82
2022-12-22T10:29:04.679Z,13.57
2022-12-22T10:31:36.398Z,13.70
2022-12-22T10:34:15.269Z,14.40
2022-12-22T10:36:48.695Z,14.32
2022-12-22T10:39:22.733Z,13.07
2022-12-22T10:41:55.222Z,14.55
2022-12-22T10:44:26.700Z,16.00
2022-12-22T10:46:59.171Z,14.50
2022-12-22T10:49:30.669Z,13.23
2022-12-22T10:52:12.454Z,14.05
2022-12-22T10:54:42.685Z,14.18
2022-12-22T10:57:29.015Z,14.63
2022-12-22T10:59:59.349Z,13.05
2022-12-22T11:02:33.310Z,12.55
2022-12-22T11:05:05.569Z,12.55
2022-12-22T11:07:36.386Z,14.27
2022-12-22T11:10:19.063Z,12.60
2022-12-22T11:13:02.610Z,12.40
2022-12-22T11:15:40.384Z,12.45
2022-12-22T11:18:25.178Z,15.65
2022-12-22T11:21:02.505Z,12.68
2022-12-22T11:23:37.287Z,11.98
2022-12-22T11:26:15.569Z,12.65
2022-12-22T11:28:57.767Z,14.27
2022-12-22T11:31:43.490Z,13.63
2022-12-22T11:34:25.724Z,12.25
2022-12-22T11:37:06.766Z,12.52
2022-12-22T11:39:41.847Z,12.68
2022-12-22T11:42:30.486Z,11.23
2022-12-22T11:45:06.973Z,13.15
2022-12-22T11:47:44.129Z,13.05
2022-12-22T11:50:59.944Z,12.57
2022-12-22T11:53:44.480Z,12.57
2022-12-22T11:56:25.515Z,10.82
2022-12-22T11:59:17.812Z,11.65
2022-12-22T12:02:00.392Z,12.57
2022-12-22T12:05:02.882Z,11.25
2022-12-22T12:07:41.394Z,10.80
2022-12-22T12:10:19.814Z,9.00
2022-12-22T12:13:00.424Z,9.80
2022-12-22T12:15:38.077Z,9.45
2022-12-22T12:18:28.457Z,10.13
2022-12-22T12:21:10.470Z,9.85
2022-12-22T12:23:59.730Z,9.27
2022-12-22T12:26:37.257Z,8.25
2022-12-22T12:29:19.942Z,9.93
2022-12-22T12:31:55.309Z,7.93
2022-12-22T12:34:25.472Z,8.35
2022-12-22T12:37:00.341Z,8.95
2022-12-22T12:39:38.034Z,8.65
2022-12-22T12:42:22.954Z,9.18
2022-12-22T12:44:52.376Z,9.02
2022-12-22T12:47:26.679Z,10.18
2022-12-22T12:49:57.847Z,9.85
2022-12-22T12:53:17.652Z,11.02
2022-12-22T12:56:00.144Z,10.40
2022-12-22T12:58:49.391Z,10.43
2022-12-22T13:01:55.362Z,10.60
2022-12-22T13:04:57.529Z,9.95
2022-12-22T13:08:03.047Z,10.43
2022-12-22T13:10:32.505Z,10.75
2022-12-22T13:13:02.614Z,10.25
2022-12-22T13:15:33.239Z,11.13
2022-12-22T13:18:02.802Z,11.65
2022-12-22T13:20:35.002Z,11.18
2022-12-22T13:23:11.403Z,10.65
2022-12-22T13:25:46.896Z,11.98
2022-12-22T13:28:20.019Z,9.73
2022-12-22T13:30:49.817Z,10.10
2022-12-22T13:33:22.186Z,10.43
2022-12-22T13:35:58.256Z,10.95
2022-12-22T13:38:29.399Z,9.73
2022-12-22T13:40:58.986Z,10.45
2022-12-22T13:43:31.051Z,8.77
2022-12-22T13:46:02.777Z,10.60
2022-12-22T13:48:43.942Z,10.70
2022-12-22T13:51:20.179Z,12.25
2022-12-22T13:54:08.609Z,11.68
2022-12-22T13:56:41.210Z,11.10
2022-12-22T13:59:23.191Z,10.65
2022-12-22T14:01:52.937Z,10.50
2022-12-22T14:04:21.419Z,11.45
2022-12-22T14:06:49.870Z,10.20
2022-12-22T14:09:19.899Z,10.65
2022-12-22T14:11:52.309Z,11.30
2022-12-22T14:14:26.516Z,10.82
2022-12-22T14:16:57.836Z,9.88
2022-12-22T14:19:27.952Z,10.25
2022-12-22T14:22:10.732Z,10.55
2022-12-22T14:24:44.526Z,8.57
2022-12-22T14:27:20.293Z,10.60
2022-12-22T14:29:50.564Z,9.45
2022-12-22T14:32:36.401Z,10.07
2022-12-22T14:35:06.322Z,10.02
2022-12-22T14:37:34.602Z,10.32
2022-12-22T14:40:03.075Z,9.73
2022-12-22T14:42:32.533Z,9.45
2022-12-22T14:45:02.600Z,9.45
2022-12-22T14:47:31.441Z,9.07
2022-12-22T14:50:04.606Z,9.93
2022-12-22T14:52:37.778Z,8.63
2022-12-22T14:55:19.446Z,9.07
2022-12-22T14:57:52.509Z,8.30
2022-12-22T15:00:37.205Z,8.55
2022-12-22T15:03:08.302Z,7.70
2022-12-22T15:05:39.301Z,8.73
2022-12-22T15:08:31.891Z,6.75
2022-12-22T15:11:03.309Z,8.43
2022-12-22T15:13:32.141Z,7.35
2022-12-22T15:16:01.838Z,7.80
2022-12-22T15:18:30.839Z,6.65
2022-12-22T15:20:59.308Z,7.78
2022-12-22T15:23:27.594Z,7.93
2022-12-22T15:25:55.835Z,7.45
2022-12-22T15:28:24.038Z,8.10
2022-12-22T15:30:52.447Z,7.80
2022-12-22T15:33:22.101Z,7.72
2022-12-22T15:35:50.846Z,8.50
2022-12-22T15:38:21.013Z,7.70
2022-12-22T15:40:49.785Z,7.85
2022-12-22T15:43:54.020Z,8.23
2022-12-22T15:46:07.898Z,8.48
2022-12-22T15:48:41.596Z,8.38
2022-12-22T15:51:19.073Z,9.88
2022-12-22T15:53:47.994Z,8.32
2022-12-22T15:56:21.765Z,7.85
2022-12-22T15:58:50.807Z,6.55
2022-12-22T16:01:19.229Z,7.28
2022-12-22T16:04:14.003Z,6.15
2022-12-22T16:06:42.520Z,5.78
2022-12-22T16:09:18.308Z,7.82
2022-12-22T16:11:46.499Z,7.43
2022-12-22T16:14:16.330Z,6.38
2022-12-22T16:16:44.765Z,6.28
2022-12-22T16:19:16.125Z,6.15
2022-12-22T16:21:46.514Z,5.85
2022-12-22T16:24:26.322Z,6.88
2022-12-22T16:26:57.044Z,5.20
2022-12-22T16:29:26.448Z,5.93
2022-12-22T16:31:55.003Z,5.15
2022-12-22T16:34:24.732Z,6.53
2022-12-22T16:36:52.921Z,8.30
2022-12-22T16:39:21.587Z,6.90
2022-12-22T16:41:59.988Z,7.65
2022-12-22T16:47:18.846Z,8.07
2022-12-22T16:49:50.211Z,7.28
2022-12-22T16:52:20.611Z,8.50
2022-12-22T16:54:52.538Z,7.47
2022-12-22T16:57:21.611Z,7.60
2022-12-22T16:59:50.138Z,9.18
2022-12-22T17:02:24.292Z,8.45
2022-12-22T17:04:56.860Z,10.32
2022-12-22T17:07:25.650Z,11.13
2022-12-22T17:09:58.408Z,10.32
2022-12-22T17:12:30.250Z,10.07
2022-12-22T17:14:59.276Z,9.15
2022-12-22T17:17:33.109Z,9.65
2022-12-22T17:20:08.586Z,10.38
2022-12-22T17:22:38.066Z,9.80
2022-12-22T17:25:08.656Z,9.95
2022-12-22T17:27:36.959Z,9.82
2022-12-22T17:30:06.058Z,9.68
2022-12-22T17:32:34.432Z,10.90
2022-12-22T17:35:02.805Z,10.50
2022-12-22T17:37:32.823Z,11.43
2022-12-22T17:40:02.807Z,11.10
2022-12-22T17:42:32.826Z,11.38
2022-12-22T17:45:01.346Z,12.25
2022-12-22T17:47:34.718Z,13.70
2022-12-22T17:50:08.897Z,11.98
2022-12-22T17:52:39.982Z,12.48
2022-12-22T17:55:18.500Z,11.52
2022-12-22T17:57:46.861Z,9.60
2022-12-22T18:00:19.144Z,8.32
2022-12-22T18:02:48.043Z,7.60
2022-12-22T18:05:18.707Z,7.00
2022-12-22T18:07:49.171Z,6.97
2022-12-22T18:10:25.902Z,8.07
2022-12-22T18:12:56.247Z,8.55
2022-12-22T18:15:26.399Z,9.23
2022-12-22T18:17:55.071Z,9.55
2022-12-22T18:20:25.259Z,8.63
2022-12-22T18:22:57.627Z,8.32
2022-12-22T18:25:28.095Z,8.35
2022-12-22T18:27:57.021Z,10.32
2022-12-22T18:30:27.396Z,10.63
2022-12-22T18:32:56.712Z,8.70
2022-12-22T18:35:27.565Z,8.45
2022-12-22T18:37:57.412Z,8.15
2022-12-22T18:40:29.328Z,8.80
2022-12-22T18:42:58.447Z,8.98
2022-12-22T18:45:29.681Z,8.70
2022-12-22T18:47:59.548Z,10.05
2022-12-22T18:50:30.930Z,8.30
2022-12-22T18:53:04.635Z,10.00
2022-12-22T18:55:34.119Z,8.30
2022-12-22T18:58:02.944Z,10.02
2022-12-22T19:00:36.219Z,8.52
2022-12-22T19:03:15.436Z,9.48
2022-12-22T19:05:45.468Z,10.20
2022-12-22T19:08:18.322Z,9.73
2022-12-22T19:10:50.772Z,10.02
2022-12-22T19:13:23.720Z,10.38
2022-12-22T19:15:52.113Z,9.68
2022-12-22T19:18:26.539Z,8.77
2022-12-22T19:20:56.337Z,9.35
2022-12-22T19:23:27.443Z,8.23
2022-12-22T19:26:02.134Z,8.27
2022-12-22T19:28:35.084Z,7.45
2022-12-22T19:31:04.723Z,8.73
2022-12-22T19:33:36.903Z,8.30
2022-12-22T19:36:05.892Z,7.78
2022-12-22T19:38:36.346Z,9.45
2022-12-22T19:41:06.893Z,7.45
2022-12-22T19:43:35.307Z,9.00
2022-12-22T19:46:05.154Z,9.40
2022-12-22T19:48:33.347Z,9.38
2022-12-22T19:51:01.853Z,8.75
2022-12-22T19:53:31.140Z,11.10
2022-12-22T19:56:00.851Z,10.77
2022-12-22T19:58:37.637Z,11.32
2022-12-22T20:01:11.757Z,9.98
2022-12-22T20:03:39.974Z,9.65
2022-12-22T20:06:09.045Z,9.70
2022-12-22T20:08:37.362Z,8.15
2022-12-22T20:11:13.535Z,8.77
2022-12-22T20:13:43.037Z,8.95
2022-12-22T20:16:13.873Z,8.82
2022-12-22T20:18:42.740Z,9.55
2022-12-22T20:21:15.905Z,8.95
2022-12-22T20:23:44.241Z,8.60
2022-12-22T20:26:17.486Z,9.10
2022-12-22T20:28:45.846Z,8.75
2022-12-22T20:31:16.494Z,10.48
2022-12-22T20:33:44.983Z,9.90
2022-12-22T20:36:21.145Z,9.02
2022-12-22T20:38:52.225Z,10.55
2022-12-22T20:41:23.179Z,9.95
2022-12-22T20:43:52.370Z,11.10
2022-12-22T20:46:24.976Z,10.73
2022-12-22T20:48:56.502Z,11.27
2022-12-22T20:51:26.874Z,9.68
2022-12-22T20:53:55.887Z,11.23
2022-12-22T20:56:28.982Z,11.30
2022-12-22T20:58:58.329Z,10.10
2022-12-22T21:01:26.771Z,11.02
2022-12-22T21:03:55.384Z,12.05
2022-12-22T21:06:29.114Z,11.68
2022-12-22T21:09:00.007Z,10.40
2022-12-22T21:11:30.453Z,12.32
2022-12-22T21:13:59.799Z,12.77
2022-12-22T21:16:31.892Z,10.93
2022-12-22T21:19:00.610Z,12.45
2022-12-22T21:21:28.993Z,14.07
2022-12-22T21:23:57.276Z,13.52
2022-12-22T21:26:32.528Z,14.15
2022-12-22T21:29:02.190Z,14.00
2022-12-22T21:31:30.977Z,13.60
2022-12-22T21:34:00.239Z,13.70
2022-12-22T21:36:30.700Z,12.57
2022-12-22T21:39:01.676Z,14.30
2022-12-22T21:41:45.107Z,13.05
2022-12-22T21:44:13.785Z,13.80
2022-12-22T21:46:45.079Z,12.98
2022-12-22T21:49:19.810Z,11.30
2022-12-22T21:51:49.204Z,11.93
2022-12-22T21:54:19.014Z,11.38
2022-12-22T21:56:50.057Z,10.30
2022-12-22T21:59:18.832Z,11.45
2022-12-22T22:01:48.087Z,11.70
2022-12-22T22:04:16.392Z,10.25
2022-12-22T22:06:44.749Z,10.30
2022-12-22T22:09:13.538Z,11.27
2022-12-22T22:11:56.218Z,12.02
2022-12-22T22:14:26.322Z,12.90
2022-12-22T22:16:55.598Z,12.40
2022-12-22T22:19:23.753Z,13.73
2022-12-22T22:21:51.826Z,12.43
2022-12-22T22:24:20.127Z,14.68
2022-12-22T22:26:50.513Z,13.80
2022-12-22T22:29:18.890Z,11.73
2022-12-22T22:31:48.654Z,12.55
2022-12-22T22:34:17.190Z,13.23
2022-12-22T22:36:45.300Z,10.35
2022-12-22T22:39:13.542Z,11.10
2022-12-22T22:41:43.742Z,12.15
2022-12-22T22:44:12.332Z,9.82
2022-12-22T22:46:40.698Z,10.38
2022-12-22T22:49:10.320Z,11.10
2022-12-22T22:51:38.753Z,11.55
2022-12-22T22:54:07.297Z,10.75
2022-12-22T22:56:38.807Z,10.85
2022-12-22T22:59:07.260Z,10.85
2022-12-22T23:01:35.521Z,11.93
2022-12-22T23:04:03.832Z,10.85
2022-12-22T23:06:34.199Z,10.10
2022-12-22T23:09:02.770Z,11.52
2022-12-22T23:11:31.141Z,10.43
2022-12-22T23:13:59.335Z,10.55
2022-12-22T23:16:30.902Z,10.07
2022-12-22T23:19:04.489Z,9.55
2022-12-22T23:21:34.243Z,9.07
2022-12-22T23:24:02.654Z,9.52
2022-12-22T23:26:31.494Z,9.32
2022-12-22T23:29:03.699Z,9.63
2022-12-22T23:31:33.681Z,10.25
2022-12-22T23:34:02.872Z,10.20
2022-12-22T23:36:33.081Z,9.30
2022-12-22T23:39:02.878Z,10.65
2022-12-22T23:41:31.124Z,9.13
2022-12-22T23:43:59.837Z,10.88
2022-12-22T23:46:28.442Z,11.25
2022-12-22T23:48:58.835Z,10.05
2022-12-22T23:51:29.683Z,8.85
2022-12-22T23:54:00.589Z,10.63
2022-12-22T23:56:31.008Z,9.95
2022-12-22T23:59:00.392Z,10.70
